Time;durP1;ratioP1;P1;durP2;ratioP2;P2;SDS_P1;SDS_P2;PMS_P1;PMS_P2;Temp;Humidity;BMP_temperature;BMP_pressure;BME280_temperature;BME280_humidity;BME280_pressure;Samples;Min_cycle;Max_cycle;Signal;HPM_P1;HPM_P2
2022/05/11 00:01:01;;;;;;;;;;;19.20;75.00;;;;;;5057677;28;19956;-76
2022/05/11 00:03:29;;;;;;;;;;;19.30;75.10;;;;;;5071237;28;19924;-78
2022/05/11 00:05:55;;;;;;;;;;;19.30;75.10;;;;;;5062450;28;19925;-75
2022/05/11 00:08:23;;;;;;;;;;;19.30;75.10;;;;;;5065060;28;20061;-78
2022/05/11 00:10:50;;;;;;;;;;;19.30;75.10;;;;;;5065505;28;20006;-78
2022/05/11 00:13:17;;;;;;;;;;;19.30;75.10;;;;;;5049678;28;19929;-78
2022/05/11 00:15:44;;;;;;;;;;;19.30;75.10;;;;;;5061159;28;19924;-76
2022/05/11 00:18:11;;;;;;;;;;;19.30;75.10;;;;;;5066889;28;19935;-75
2022/05/11 00:20:37;;;;;;;;;;;19.30;75.10;;;;;;5055906;28;20464;-76
2022/05/11 00:23:04;;;;;;;;;;;19.30;75.10;;;;;;5054127;28;19931;-75
2022/05/11 00:25:33;;;;;;;;;;;19.30;75.10;;;;;;5041459;28;19924;-77
2022/05/11 00:28:00;;;;;;;;;;;19.30;75.10;;;;;;5043659;28;19935;-77
2022/05/11 00:30:28;;;;;;;;;;;19.30;75.10;;;;;;5058478;28;20023;-75
2022/05/11 00:32:56;;;;;;;;;;;19.30;75.10;;;;;;5060133;28;19929;-76
2022/05/11 00:35:23;;;;;;;;;;;19.30;75.10;;;;;;5060621;28;19931;-78
2022/05/11 00:37:50;;;;;;;;;;;19.30;75.10;;;;;;5057776;28;19934;-78
2022/05/11 00:40:18;;;;;;;;;;;19.30;75.10;;;;;;5054791;28;20453;-76
2022/05/11 00:42:46;;;;;;;;;;;19.30;75.10;;;;;;5060364;28;19928;-77
2022/05/11 00:45:13;;;;;;;;;;;19.30;75.10;;;;;;5072158;28;19930;-75
2022/05/11 00:47:41;;;;;;;;;;;19.30;75.10;;;;;;5060088;28;19932;-75
2022/05/11 00:50:09;;;;;;;;;;;19.30;75.10;;;;;;5059954;28;19932;-75
2022/05/11 00:52:39;;;;;;;;;;;19.30;75.10;;;;;;5060350;28;19975;-76
2022/05/11 00:55:07;;;;;;;;;;;19.30;75.10;;;;;;5059218;28;19971;-77
2022/05/11 00:57:36;;;;;;;;;;;19.30;75.10;;;;;;5058150;28;19990;-74
2022/05/11 01:00:07;;;;;;;;;;;19.30;75.10;;;;;;5058642;28;19924;-77
2022/05/11 01:02:34;;;;;;;;;;;19.30;75.10;;;;;;5060480;28;19925;-76
2022/05/11 01:05:03;;;;;;;;;;;19.30;75.10;;;;;;5060683;28;20664;-78
2022/05/11 01:07:31;;;;;;;;;;;19.30;75.10;;;;;;5060233;28;19924;-76
2022/05/11 01:09:58;;;;;;;;;;;19.30;75.10;;;;;;5057942;28;20015;-75
2022/05/11 01:12:29;;;;;;;;;;;19.30;75.10;;;;;;5055470;28;20280;-76
2022/05/11 01:15:00;;;;;;;;;;;19.30;75.10;;;;;;5055585;28;20045;-77
2022/05/11 01:17:29;;;;;;;;;;;19.30;75.10;;;;;;5065895;28;19925;-79
2022/05/11 01:19:56;;;;;;;;;;;19.30;75.10;;;;;;5062644;28;19959;-77
2022/05/11 01:22:27;;;;;;;;;;;19.30;75.10;;;;;;5053459;28;19924;-77
2022/05/11 01:24:55;;;;;;;;;;;19.30;75.10;;;;;;5062422;28;19925;-77
2022/05/11 01:27:27;;;;;;;;;;;19.30;75.10;;;;;;5060717;28;19925;-76
2022/05/11 01:29:53;;;;;;;;;;;19.30;75.10;;;;;;5062060;28;19936;-75
2022/05/11 01:32:21;;;;;;;;;;;19.30;75.10;;;;;;5065325;28;20018;-77
2022/05/11 01:34:49;;;;;;;;;;;19.20;75.00;;;;;;5069257;28;19970;-77
2022/05/11 01:37:16;;;;;;;;;;;19.20;75.00;;;;;;5077145;28;19929;-76
2022/05/11 01:39:44;;;;;;;;;;;19.30;75.10;;;;;;5057666;28;19929;-76
2022/05/11 01:42:13;;;;;;;;;;;19.20;75.00;;;;;;5068272;28;19925;-77
2022/05/11 01:44:40;;;;;;;;;;;19.20;75.00;;;;;;5043750;28;19928;-75
2022/05/11 01:47:07;;;;;;;;;;;19.20;75.00;;;;;;5057591;28;19924;-77
2022/05/11 01:49:35;;;;;;;;;;;19.20;75.00;;;;;;5049985;28;19963;-75
2022/05/11 01:52:02;;;;;;;;;;;19.20;75.00;;;;;;5058180;28;19929;-76
2022/05/11 01:54:29;;;;;;;;;;;19.20;75.00;;;;;;5060706;28;19924;-76
2022/05/11 01:56:55;;;;;;;;;;;19.20;75.00;;;;;;5060017;28;19938;-79
2022/05/11 01:59:24;;;;;;;;;;;19.20;75.00;;;;;;5059882;28;19932;-76
2022/05/11 02:01:50;;;;;;;;;;;19.20;75.00;;;;;;5047521;28;19936;-76
2022/05/11 02:09:46;;;;;;;;;;;19.20;75.00;;;;;;5063578;28;19932;-77
2022/05/11 02:12:13;;;;;;;;;;;19.30;75.10;;;;;;5062123;28;19977;-75
2022/05/11 02:14:41;;;;;;;;;;;19.20;75.00;;;;;;5045046;28;19932;-74
2022/05/11 02:17:08;;;;;;;;;;;19.30;75.10;;;;;;5044464;28;19924;-77
2022/05/11 02:19:35;;;;;;;;;;;19.20;75.00;;;;;;5064478;28;19931;-77
2022/05/11 02:22:02;;;;;;;;;;;19.30;75.00;;;;;;5037694;28;20010;-76
2022/05/11 02:24:29;;;;;;;;;;;19.20;74.90;;;;;;5063963;28;19925;-75
2022/05/11 02:26:55;;;;;;;;;;;19.30;75.00;;;;;;5061355;28;19925;-77
2022/05/11 02:29:23;;;;;;;;;;;19.20;74.90;;;;;;5060558;28;19928;-76
2022/05/11 02:31:51;;;;;;;;;;;19.20;74.90;;;;;;5056619;28;20288;-76
2022/05/11 02:36:58;;;;;;;;;;;19.30;74.90;;;;;;5054984;28;19929;-77
2022/05/11 02:39:25;;;;;;;;;;;19.20;74.80;;;;;;5059160;28;19932;-77
2022/05/11 02:41:53;;;;;;;;;;;19.20;74.80;;;;;;5044848;28;19956;-74
2022/05/11 02:44:21;;;;;;;;;;;19.20;74.80;;;;;;5055858;28;19936;-77
2022/05/11 02:46:47;;;;;;;;;;;19.20;74.90;;;;;;5061575;28;19978;-76
2022/05/11 02:49:15;;;;;;;;;;;19.20;74.80;;;;;;5035706;28;19974;-75
2022/05/11 02:51:43;;;;;;;;;;;19.20;74.80;;;;;;5060770;28;19932;-76
2022/05/11 02:54:10;;;;;;;;;;;19.20;74.80;;;;;;5050982;28;19928;-76
2022/05/11 02:56:37;;;;;;;;;;;19.20;74.80;;;;;;5057146;28;19963;-75
2022/05/11 02:59:04;;;;;;;;;;;19.20;74.80;;;;;;5058882;28;19974;-75
2022/05/11 03:01:31;;;;;;;;;;;19.20;74.70;;;;;;5048948;28;20386;-78
2022/05/11 03:04:20;;;;;;;;;;;19.30;74.80;;;;;;5059509;28;19999;-75
2022/05/11 03:06:48;;;;;;;;;;;19.20;74.70;;;;;;5053140;28;19928;-77
2022/05/11 03:09:15;;;;;;;;;;;19.20;74.70;;;;;;5061512;28;20543;-76
2022/05/11 03:11:43;;;;;;;;;;;19.20;74.70;;;;;;5036446;28;20363;-77
2022/05/11 03:14:09;;;;;;;;;;;19.20;74.70;;;;;;5041483;28;19929;-77
2022/05/11 03:16:36;;;;;;;;;;;19.20;74.70;;;;;;5058911;28;19935;-76
2022/05/11 03:19:03;;;;;;;;;;;19.20;74.70;;;;;;5064246;28;20013;-76
2022/05/11 03:21:32;;;;;;;;;;;19.20;74.70;;;;;;5054306;28;20015;-76
2022/05/11 03:23:59;;;;;;;;;;;19.20;74.70;;;;;;5062216;28;19999;-75
2022/05/11 03:26:26;;;;;;;;;;;19.20;74.70;;;;;;5044811;28;19928;-76
2022/05/11 03:28:54;;;;;;;;;;;19.20;74.70;;;;;;5063710;28;19939;-77
2022/05/11 03:31:20;;;;;;;;;;;19.20;74.70;;;;;;5066844;28;20035;-77
2022/05/11 03:36:32;;;;;;;;;;;19.20;74.60;;;;;;5069021;28;19971;-75
2022/05/11 03:38:59;;;;;;;;;;;19.20;74.60;;;;;;5053462;28;19924;-77
2022/05/11 03:41:26;;;;;;;;;;;19.20;74.60;;;;;;5078636;28;19920;-76
2022/05/11 03:43:53;;;;;;;;;;;19.20;74.60;;;;;;5083919;28;19932;-75
2022/05/11 03:46:19;;;;;;;;;;;19.20;74.60;;;;;;5060302;28;20266;-74
2022/05/11 03:48:46;;;;;;;;;;;19.20;74.60;;;;;;5070758;28;20094;-76
2022/05/11 03:51:13;;;;;;;;;;;19.20;74.60;;;;;;5058171;28;19994;-73
2022/05/11 03:53:41;;;;;;;;;;;19.20;74.60;;;;;;5067197;28;19935;-76
2022/05/11 03:56:08;;;;;;;;;;;19.20;74.60;;;;;;5047003;28;19925;-76
2022/05/11 03:58:34;;;;;;;;;;;19.20;74.60;;;;;;5047387;28;19949;-75
2022/05/11 04:01:01;;;;;;;;;;;19.20;74.50;;;;;;5049137;28;19935;-76
2022/05/11 04:03:28;;;;;;;;;;;19.20;74.50;;;;;;5034161;28;19936;-76
2022/05/11 04:05:55;;;;;;;;;;;19.20;74.50;;;;;;5053821;28;19925;-77
2022/05/11 04:08:22;;;;;;;;;;;19.20;74.60;;;;;;5067882;28;20032;-75
2022/05/11 04:10:50;;;;;;;;;;;19.20;75.30;;;;;;5072028;28;19931;-76
2022/05/11 04:13:17;;;;;;;;;;;19.20;74.50;;;;;;5049844;28;19947;-75
2022/05/11 04:15:43;;;;;;;;;;;19.20;74.60;;;;;;5058825;28;19924;-74
2022/05/11 04:18:10;;;;;;;;;;;19.20;74.50;;;;;;5034613;28;19940;-76
2022/05/11 04:20:37;;;;;;;;;;;19.20;74.50;;;;;;5059464;28;19928;-76
2022/05/11 04:23:04;;;;;;;;;;;19.20;74.50;;;;;;5064727;28;19946;-77
2022/05/11 04:25:32;;;;;;;;;;;19.20;74.50;;;;;;5042717;28;19955;-74
2022/05/11 04:28:01;;;;;;;;;;;19.20;74.50;;;;;;5062957;28;19924;-75
2022/05/11 04:30:31;;;;;;;;;;;19.20;74.50;;;;;;5060331;28;20423;-76
2022/05/11 04:32:58;;;;;;;;;;;19.20;74.50;;;;;;5072318;28;19954;-75
2022/05/11 04:35:30;;;;;;;;;;;19.20;74.50;;;;;;5062089;28;19956;-76
2022/05/11 04:37:57;;;;;;;;;;;19.20;74.50;;;;;;5037820;28;20013;-76
2022/05/11 04:40:23;;;;;;;;;;;19.20;74.50;;;;;;5041828;28;19931;-75
2022/05/11 04:42:50;;;;;;;;;;;19.20;74.50;;;;;;5046633;28;19929;-76
2022/05/11 04:45:18;;;;;;;;;;;19.20;74.50;;;;;;5041484;28;19947;-78
2022/05/11 04:47:45;;;;;;;;;;;19.20;74.50;;;;;;5026339;28;19925;-76
2022/05/11 04:50:13;;;;;;;;;;;19.20;74.50;;;;;;5041934;28;19928;-76
2022/05/11 04:52:39;;;;;;;;;;;19.20;74.50;;;;;;5031082;28;19932;-76
2022/05/11 04:55:07;;;;;;;;;;;19.20;74.50;;;;;;5048631;28;20402;-77
2022/05/11 04:57:34;;;;;;;;;;;19.20;74.50;;;;;;5029739;28;19925;-75
2022/05/11 05:00:01;;;;;;;;;;;19.20;74.50;;;;;;5041091;28;19963;-76
2022/05/11 05:02:29;;;;;;;;;;;19.20;74.50;;;;;;5040700;28;20477;-76
2022/05/11 05:04:59;;;;;;;;;;;19.20;74.50;;;;;;5042540;28;19928;-76
2022/05/11 05:07:25;;;;;;;;;;;19.20;74.50;;;;;;5045012;28;19925;-78
2022/05/11 05:09:52;;;;;;;;;;;19.20;74.40;;;;;;5039945;28;19925;-75
2022/05/11 05:12:19;;;;;;;;;;;19.20;74.40;;;;;;5043590;28;19924;-77
2022/05/11 05:14:46;;;;;;;;;;;19.20;74.40;;;;;;5048833;28;19929;-77
2022/05/11 05:17:13;;;;;;;;;;;19.20;74.40;;;;;;5041342;28;19971;-75
2022/05/11 05:19:43;;;;;;;;;;;19.20;75.20;;;;;;5039569;28;19986;-77
2022/05/11 05:22:10;;;;;;;;;;;19.20;75.20;;;;;;5036515;28;19929;-76
2022/05/11 05:24:55;;;;;;;;;;;19.20;74.40;;;;;;5053729;28;19935;-76
2022/05/11 05:27:21;;;;;;;;;;;19.20;74.40;;;;;;5033061;28;20055;-80
2022/05/11 05:32:34;;;;;;;;;;;19.20;74.30;;;;;;5039670;28;19926;-76
2022/05/11 05:35:02;;;;;;;;;;;19.20;74.40;;;;;;5038953;28;19925;-76
2022/05/11 05:37:29;;;;;;;;;;;19.30;74.50;;;;;;5041310;28;19928;-76
2022/05/11 05:40:02;;;;;;;;;;;19.20;74.40;;;;;;5045289;28;19925;-76
2022/05/11 05:42:29;;;;;;;;;;;19.20;74.40;;;;;;5074920;28;19924;-77
2022/05/11 05:44:56;;;;;;;;;;;19.20;74.30;;;;;;5073128;28;20022;-77
2022/05/11 05:47:23;;;;;;;;;;;19.20;74.40;;;;;;5077401;28;19952;-78
2022/05/11 05:49:50;;;;;;;;;;;19.20;74.30;;;;;;5075966;28;19928;-77
2022/05/11 05:52:19;;;;;;;;;;;19.20;74.30;;;;;;5056281;28;19936;-76
2022/05/11 05:54:46;;;;;;;;;;;19.30;74.40;;;;;;5070071;28;19970;-75
2022/05/11 05:57:13;;;;;;;;;;;19.20;74.30;;;;;;5058195;28;19975;-78
2022/05/11 05:59:40;;;;;;;;;;;19.20;74.30;;;;;;5044854;28;19928;-77
2022/05/11 06:02:09;;;;;;;;;;;19.20;74.20;;;;;;5064996;28;19928;-78
2022/05/11 06:04:36;;;;;;;;;;;19.20;74.20;;;;;;5046797;28;19924;-78
2022/05/11 06:07:03;;;;;;;;;;;19.20;74.10;;;;;;5047020;28;19924;-79
2022/05/11 06:09:33;;;;;;;;;;;19.30;74.20;;;;;;5046525;28;19924;-76
2022/05/11 06:11:59;;;;;;;;;;;19.20;74.10;;;;;;5063922;28;19960;-76
2022/05/11 06:14:26;;;;;;;;;;;19.30;74.20;;;;;;5056597;28;19929;-78
2022/05/11 06:16:53;;;;;;;;;;;19.30;74.20;;;;;;5070030;28;19951;-76
2022/05/11 06:19:20;;;;;;;;;;;19.30;74.20;;;;;;5072184;28;19928;-79
2022/05/11 06:21:48;;;;;;;;;;;19.30;74.20;;;;;;5069618;28;19990;-77
2022/05/11 06:24:15;;;;;;;;;;;19.30;74.90;;;;;;5071593;28;19924;-77
2022/05/11 06:26:43;;;;;;;;;;;19.30;74.20;;;;;;5068131;28;20276;-76
2022/05/11 06:29:10;;;;;;;;;;;19.30;74.20;;;;;;5058886;28;19943;-79
2022/05/11 06:31:36;;;;;;;;;;;19.30;74.20;;;;;;5069173;28;19925;-78
2022/05/11 06:34:03;;;;;;;;;;;19.30;74.20;;;;;;5064085;28;19947;-75
2022/05/11 06:36:31;;;;;;;;;;;19.30;74.10;;;;;;5062184;28;19931;-76
2022/05/11 06:38:58;;;;;;;;;;;19.30;74.10;;;;;;5057602;28;19924;-75
2022/05/11 06:41:26;;;;;;;;;;;19.30;74.10;;;;;;5063644;28;19924;-76
2022/05/11 06:43:54;;;;;;;;;;;19.30;74.10;;;;;;5062385;28;19924;-75
2022/05/11 06:46:21;;;;;;;;;;;19.30;74.10;;;;;;5072854;28;20465;-77
2022/05/11 06:48:48;;;;;;;;;;;19.40;74.20;;;;;;5062337;28;19925;-76
2022/05/11 06:51:16;;;;;;;;;;;19.30;74.00;;;;;;5076253;28;19948;-75
2022/05/11 06:59:22;;;;;;;;;;;19.40;74.20;;;;;;5043761;28;19921;-76
2022/05/11 07:01:49;;;;;;;;;;;19.30;74.10;;;;;;5061925;28;19925;-78
2022/05/11 07:04:16;;;;;;;;;;;19.30;74.10;;;;;;5059965;28;19925;-76
2022/05/11 07:06:42;;;;;;;;;;;19.30;74.00;;;;;;5055717;28;19931;-75
2022/05/11 07:09:09;;;;;;;;;;;19.30;74.10;;;;;;5066086;28;19928;-77
2022/05/11 07:14:22;;;;;;;;;;;19.40;74.20;;;;;;5063600;28;19935;-77
2022/05/11 07:16:49;;;;;;;;;;;19.40;74.20;;;;;;5062312;28;20026;-79
2022/05/11 07:19:16;;;;;;;;;;;19.40;74.20;;;;;;5062205;28;20019;-77
2022/05/11 07:21:43;;;;;;;;;;;19.40;74.20;;;;;;5062390;28;19960;-76
2022/05/11 07:24:10;;;;;;;;;;;19.40;74.20;;;;;;5062917;28;19928;-76
2022/05/11 07:26:37;;;;;;;;;;;19.40;74.20;;;;;;5077438;28;19924;-78
2022/05/11 07:29:04;;;;;;;;;;;19.40;74.20;;;;;;5056292;28;19936;-78
2022/05/11 07:31:33;;;;;;;;;;;19.40;74.20;;;;;;5070120;28;19928;-78
2022/05/11 07:33:59;;;;;;;;;;;19.40;74.20;;;;;;5062935;28;19983;-77
2022/05/11 07:36:27;;;;;;;;;;;19.40;74.20;;;;;;5071350;28;20153;-78
2022/05/11 07:38:54;;;;;;;;;;;19.40;74.20;;;;;;5062855;28;19925;-77
2022/05/11 07:41:21;;;;;;;;;;;19.40;74.10;;;;;;5063542;28;19932;-76
2022/05/11 07:43:47;;;;;;;;;;;19.50;74.30;;;;;;5063758;28;19924;-77
2022/05/11 07:46:14;;;;;;;;;;;19.40;74.20;;;;;;5073181;28;19978;-76
2022/05/11 07:48:43;;;;;;;;;;;19.50;74.30;;;;;;5070905;28;19928;-77
2022/05/11 07:51:09;;;;;;;;;;;19.50;74.30;;;;;;5061935;28;19928;-77
2022/05/11 07:53:36;;;;;;;;;;;19.50;74.30;;;;;;5045377;28;19928;-80
2022/05/11 08:01:31;;;;;;;;;;;19.50;74.10;;;;;;5062406;28;19925;-77
2022/05/11 08:03:59;;;;;;;;;;;19.50;74.10;;;;;;5060605;28;19943;-75
2022/05/11 08:06:26;;;;;;;;;;;19.50;74.10;;;;;;5063395;28;19928;-76
2022/05/11 08:08:53;;;;;;;;;;;19.50;74.10;;;;;;5061484;28;19924;-78
2022/05/11 08:11:20;;;;;;;;;;;19.50;74.10;;;;;;5043293;28;19979;-75
2022/05/11 08:13:46;;;;;;;;;;;19.50;74.10;;;;;;5067866;28;19928;-75
2022/05/11 08:16:13;;;;;;;;;;;19.60;74.10;;;;;;5067192;28;20019;-77
2022/05/11 08:18:40;;;;;;;;;;;19.60;74.10;;;;;;5065368;28;19924;-76
2022/05/11 08:21:09;;;;;;;;;;;19.60;74.10;;;;;;5060414;28;19931;-75
2022/05/11 08:23:35;;;;;;;;;;;19.60;74.10;;;;;;5061330;28;20118;-78
2022/05/11 08:26:02;;;;;;;;;;;19.60;74.10;;;;;;5069046;28;19931;-77
2022/05/11 08:28:29;;;;;;;;;;;19.60;74.10;;;;;;5063925;28;19929;-74
2022/05/11 08:33:41;;;;;;;;;;;19.60;74.90;;;;;;5049819;28;19987;-77
2022/05/11 08:36:10;;;;;;;;;;;19.60;74.10;;;;;;5060157;28;20011;-79
2022/05/11 08:38:39;;;;;;;;;;;19.60;74.00;;;;;;5041613;28;20023;-75
2022/05/11 08:41:06;;;;;;;;;;;19.60;74.00;;;;;;5037466;28;20002;-76
2022/05/11 08:43:36;;;;;;;;;;;19.60;74.00;;;;;;5061017;28;19931;-77
2022/05/11 08:46:09;;;;;;;;;;;19.60;73.80;;;;;;5058187;28;21869;-78
2022/05/11 08:48:40;;;;;;;;;;;19.60;74.00;;;;;;5060821;28;19924;-77
2022/05/11 08:51:09;;;;;;;;;;;19.60;73.80;;;;;;5060295;28;20624;-77
2022/05/11 08:53:38;;;;;;;;;;;19.70;74.00;;;;;;5071108;28;19924;-76
2022/05/11 08:56:10;;;;;;;;;;;19.70;74.00;;;;;;5065568;28;19955;-78
2022/05/11 08:58:39;;;;;;;;;;;19.70;74.00;;;;;;5071128;28;19925;-76
2022/05/11 09:01:09;;;;;;;;;;;19.70;74.00;;;;;;5057972;28;19951;-76
2022/05/11 09:03:37;;;;;;;;;;;19.70;74.10;;;;;;5060697;28;19924;-76
2022/05/11 09:06:06;;;;;;;;;;;19.70;74.00;;;;;;5059459;28;19924;-78
2022/05/11 09:08:35;;;;;;;;;;;19.70;74.20;;;;;;5063186;28;20375;-76
2022/05/11 09:11:04;;;;;;;;;;;19.80;74.10;;;;;;5067229;28;19924;-77
2022/05/11 09:13:31;;;;;;;;;;;19.70;74.10;;;;;;5050101;28;19932;-78
2022/05/11 09:16:00;;;;;;;;;;;19.70;74.00;;;;;;5072240;28;20559;-76
2022/05/11 09:18:36;;;;;;;;;;;19.70;74.10;;;;;;5044128;28;19929;-76
2022/05/11 09:21:04;;;;;;;;;;;19.70;74.10;;;;;;5054665;28;19979;-77
2022/05/11 09:23:32;;;;;;;;;;;19.70;74.00;;;;;;5061611;28;20015;-76
2022/05/11 09:26:01;;;;;;;;;;;19.60;74.00;;;;;;5041861;28;19924;-76
2022/05/11 09:28:32;;;;;;;;;;;19.80;74.20;;;;;;5061974;28;20621;-76
2022/05/11 09:31:01;;;;;;;;;;;19.80;74.20;;;;;;5061327;28;19925;-77
2022/05/11 09:33:28;;;;;;;;;;;19.80;74.20;;;;;;5062196;28;19928;-76
2022/05/11 09:35:56;;;;;;;;;;;19.80;74.20;;;;;;5057462;28;19929;-75
2022/05/11 09:38:30;;;;;;;;;;;19.80;74.10;;;;;;5059101;28;19925;-77
2022/05/11 09:40:59;;;;;;;;;;;19.80;74.00;;;;;;5057542;28;19936;-75
2022/05/11 09:43:32;;;;;;;;;;;19.80;74.10;;;;;;5031845;28;19925;-76
2022/05/11 09:46:17;;;;;;;;;;;19.80;74.10;;;;;;5064643;28;19970;-76
2022/05/11 09:48:54;;;;;;;;;;;19.80;74.10;;;;;;5080662;28;19929;-75
2022/05/11 09:51:25;;;;;;;;;;;19.80;74.10;;;;;;5077986;28;20019;-76
2022/05/11 09:53:54;;;;;;;;;;;19.80;74.10;;;;;;5085314;28;19933;-75
2022/05/11 09:56:22;;;;;;;;;;;19.80;74.10;;;;;;5057305;28;19971;-75
2022/05/11 09:58:50;;;;;;;;;;;19.80;74.00;;;;;;5053171;28;20031;-75
2022/05/11 10:01:18;;;;;;;;;;;19.80;74.10;;;;;;5059855;28;19932;-78
2022/05/11 10:03:48;;;;;;;;;;;19.80;74.00;;;;;;5057281;28;19978;-77
2022/05/11 10:06:16;;;;;;;;;;;19.90;74.10;;;;;;5056995;28;19929;-78
2022/05/11 10:08:44;;;;;;;;;;;19.90;74.10;;;;;;5061240;28;19924;-78
2022/05/11 10:11:16;;;;;;;;;;;19.90;74.10;;;;;;5060238;28;19929;-75
2022/05/11 10:13:45;;;;;;;;;;;19.90;74.10;;;;;;5040407;28;19951;-79
2022/05/11 10:21:53;;;;;;;;;;;19.90;74.20;;;;;;5059054;28;19924;-76
2022/05/11 10:24:23;;;;;;;;;;;19.90;74.20;;;;;;5043154;28;19972;-77
2022/05/11 10:26:54;;;;;;;;;;;19.90;74.20;;;;;;5074407;28;20020;-74
2022/05/11 10:29:25;;;;;;;;;;;19.90;74.00;;;;;;5066619;28;19942;-77
2022/05/11 10:31:58;;;;;;;;;;;19.90;74.00;;;;;;5062786;28;19935;-77
2022/05/11 10:34:28;;;;;;;;;;;20.00;74.10;;;;;;5057302;28;19931;-77
2022/05/11 10:37:00;;;;;;;;;;;20.00;74.10;;;;;;5036613;28;19932;-76
2022/05/11 10:39:36;;;;;;;;;;;20.00;74.10;;;;;;5051444;28;19932;-77
2022/05/11 10:42:08;;;;;;;;;;;19.90;74.00;;;;;;5048906;28;19928;-78
2022/05/11 10:44:42;;;;;;;;;;;20.00;74.20;;;;;;5071129;28;19945;-78
2022/05/11 10:47:16;;;;;;;;;;;20.00;74.10;;;;;;5057341;28;20154;-77
2022/05/11 10:49:55;;;;;;;;;;;19.90;74.00;;;;;;5061579;28;19932;-76
2022/05/11 10:52:40;;;;;;;;;;;19.90;73.90;;;;;;5062957;28;19931;-75
2022/05/11 10:55:13;;;;;;;;;;;20.00;74.00;;;;;;5054141;28;20031;-76
2022/05/11 10:57:45;;;;;;;;;;;20.00;74.00;;;;;;5062955;28;19924;-76
2022/05/11 11:00:21;;;;;;;;;;;20.00;74.00;;;;;;5059670;28;19929;-76
2022/05/11 11:03:12;;;;;;;;;;;20.00;73.90;;;;;;5062206;28;19985;-77
2022/05/11 11:05:47;;;;;;;;;;;20.00;74.00;;;;;;5044764;28;19943;-77
2022/05/11 11:08:25;;;;;;;;;;;20.00;74.00;;;;;;5063409;28;20396;-76
2022/05/11 11:10:55;;;;;;;;;;;20.00;73.90;;;;;;5072240;28;20041;-76
2022/05/11 11:13:38;;;;;;;;;;;20.00;74.00;;;;;;5059006;28;19924;-76
2022/05/11 11:16:25;;;;;;;;;;;20.00;74.00;;;;;;5053620;28;19951;-76
2022/05/11 11:18:53;;;;;;;;;;;20.00;73.90;;;;;;5050814;28;19925;-76
2022/05/11 11:21:22;;;;;;;;;;;20.00;73.90;;;;;;5044912;28;20298;-78
2022/05/11 11:24:11;;;;;;;;;;;20.00;73.90;;;;;;5059202;28;19925;-76
2022/05/11 11:26:49;;;;;;;;;;;20.00;73.90;;;;;;5065607;28;20157;-78
2022/05/11 11:29:18;;;;;;;;;;;20.00;73.90;;;;;;5063398;28;19931;-77
2022/05/11 11:32:02;;;;;;;;;;;20.00;73.80;;;;;;5044413;28;20421;-79
2022/05/11 11:34:31;;;;;;;;;;;20.00;73.80;;;;;;5062856;28;19928;-78
2022/05/11 11:37:00;;;;;;;;;;;20.00;73.70;;;;;;5063122;28;19924;-76
2022/05/11 11:39:45;;;;;;;;;;;20.10;73.70;;;;;;5059474;28;20371;-76
2022/05/11 11:42:12;;;;;;;;;;;20.10;73.80;;;;;;5068364;28;19935;-76
2022/05/11 11:44:40;;;;;;;;;;;20.00;73.60;;;;;;5066005;28;19928;-78
2022/05/11 11:47:30;;;;;;;;;;;20.10;73.70;;;;;;5065111;28;19928;-75
2022/05/11 11:49:58;;;;;;;;;;;20.00;73.60;;;;;;5060792;28;19918;-77
2022/05/11 11:52:35;;;;;;;;;;;20.00;73.60;;;;;;5098989;28;19924;-78
2022/05/11 11:55:08;;;;;;;;;;;20.10;73.70;;;;;;5076510;28;19931;-77
2022/05/11 11:57:35;;;;;;;;;;;20.10;73.70;;;;;;5080719;28;20442;-76
2022/05/11 12:00:05;;;;;;;;;;;20.10;73.60;;;;;;5065330;28;19954;-76
2022/05/11 12:02:37;;;;;;;;;;;20.10;73.60;;;;;;5075792;28;20015;-75
2022/05/11 12:05:07;;;;;;;;;;;20.10;73.60;;;;;;5065315;28;19935;-76
2022/05/11 12:16:00;;;;;;;;;;;20.10;73.40;;;;;;5074332;28;19932;-76
2022/05/11 12:18:28;;;;;;;;;;;20.10;73.40;;;;;;5023335;28;19928;-78
2022/05/11 12:20:55;;;;;;;;;;;20.10;73.30;;;;;;5061648;28;19983;-77
2022/05/11 12:23:26;;;;;;;;;;;20.10;73.30;;;;;;5061176;28;20015;-77
2022/05/11 12:25:54;;;;;;;;;;;20.10;73.30;;;;;;5061705;28;19924;-79
2022/05/11 12:28:22;;;;;;;;;;;20.10;73.30;;;;;;5061157;28;20035;-79
2022/05/11 12:30:49;;;;;;;;;;;20.10;73.20;;;;;;5060698;28;19943;-76
2022/05/11 12:33:21;;;;;;;;;;;20.10;73.20;;;;;;5043685;28;20375;-78
2022/05/11 12:35:49;;;;;;;;;;;20.10;73.20;;;;;;5050149;28;19972;-77
2022/05/11 12:38:28;;;;;;;;;;;20.10;73.20;;;;;;5056628;28;19932;-75
2022/05/11 12:40:55;;;;;;;;;;;20.10;73.20;;;;;;5061341;28;19924;-77
2022/05/11 12:43:24;;;;;;;;;;;20.10;73.20;;;;;;5060992;28;19978;-79
2022/05/11 12:45:51;;;;;;;;;;;20.10;73.20;;;;;;5060659;28;19979;-76
2022/05/11 12:48:19;;;;;;;;;;;20.10;73.20;;;;;;5070581;28;19924;-75
2022/05/11 12:50:50;;;;;;;;;;;20.10;73.20;;;;;;5065288;28;20010;-76
2022/05/11 12:53:22;;;;;;;;;;;20.10;73.20;;;;;;5060003;28;19932;-75
2022/05/11 12:55:51;;;;;;;;;;;20.10;73.20;;;;;;5055169;28;19932;-77
2022/05/11 12:58:19;;;;;;;;;;;20.10;73.10;;;;;;5060561;28;19999;-75
2022/05/11 13:00:46;;;;;;;;;;;20.10;73.20;;;;;;5058634;28;19947;-77
2022/05/11 13:03:23;;;;;;;;;;;20.10;73.20;;;;;;5060517;28;19925;-78
2022/05/11 13:05:50;;;;;;;;;;;20.10;73.10;;;;;;5060997;28;20019;-76
2022/05/11 13:08:17;;;;;;;;;;;20.10;73.20;;;;;;5051022;28;19931;-76
2022/05/11 13:10:44;;;;;;;;;;;20.10;73.20;;;;;;5049954;28;19925;-77
2022/05/11 13:13:14;;;;;;;;;;;20.10;73.10;;;;;;5059116;28;19935;-75
2022/05/11 13:15:42;;;;;;;;;;;20.10;73.00;;;;;;5058990;28;19932;-75
2022/05/11 13:18:11;;;;;;;;;;;20.10;73.00;;;;;;5061563;28;19928;-75
2022/05/11 13:20:39;;;;;;;;;;;20.10;73.10;;;;;;5059672;28;19959;-76
2022/05/11 13:23:13;;;;;;;;;;;20.10;73.10;;;;;;5060233;28;19979;-76
2022/05/11 13:25:45;;;;;;;;;;;20.10;73.00;;;;;;5060567;28;19952;-76
2022/05/11 13:28:15;;;;;;;;;;;20.10;73.00;;;;;;5060848;28;19981;-77
2022/05/11 13:30:45;;;;;;;;;;;20.10;72.90;;;;;;5060520;28;19930;-79
2022/05/11 13:33:29;;;;;;;;;;;20.10;72.90;;;;;;5060855;28;19924;-76
2022/05/11 13:36:14;;;;;;;;;;;20.10;73.00;;;;;;5035659;28;19928;-77
2022/05/11 13:38:49;;;;;;;;;;;20.10;72.90;;;;;;5047725;28;19933;-75
2022/05/11 13:41:17;;;;;;;;;;;20.10;73.00;;;;;;5060944;28;19929;-75
2022/05/11 13:43:47;;;;;;;;;;;20.10;73.00;;;;;;5066056;28;19939;-76
2022/05/11 13:46:30;;;;;;;;;;;20.10;73.00;;;;;;5062074;28;19925;-75
2022/05/11 13:49:12;;;;;;;;;;;20.10;73.00;;;;;;5064196;28;19942;-78
2022/05/11 13:51:40;;;;;;;;;;;20.10;72.90;;;;;;5070395;28;19925;-76
2022/05/11 13:54:20;;;;;;;;;;;20.10;72.90;;;;;;5064602;28;19925;-78
2022/05/11 13:56:56;;;;;;;;;;;20.10;73.00;;;;;;5085416;28;19952;-75
2022/05/11 13:59:24;;;;;;;;;;;20.10;72.90;;;;;;5064185;28;19948;-77
2022/05/11 14:01:51;;;;;;;;;;;20.00;72.80;;;;;;5071819;28;19928;-75
2022/05/11 14:04:20;;;;;;;;;;;20.10;72.90;;;;;;5053868;28;20051;-76
2022/05/11 14:06:59;;;;;;;;;;;20.10;72.90;;;;;;5053050;28;19925;-77
2022/05/11 14:09:27;;;;;;;;;;;20.20;73.00;;;;;;5057708;28;19924;-77
2022/05/11 14:12:14;;;;;;;;;;;20.20;72.90;;;;;;5064189;28;20379;-75
2022/05/11 14:14:42;;;;;;;;;;;20.10;72.90;;;;;;5042733;28;19928;-76
2022/05/11 14:17:12;;;;;;;;;;;20.20;72.90;;;;;;5060402;28;20015;-76
2022/05/11 14:19:39;;;;;;;;;;;20.10;72.90;;;;;;5064223;28;19932;-75
2022/05/11 14:22:07;;;;;;;;;;;20.20;72.90;;;;;;5055933;28;19935;-75
2022/05/11 14:24:34;;;;;;;;;;;20.20;73.00;;;;;;5045420;28;19931;-76
2022/05/11 14:27:01;;;;;;;;;;;20.20;73.00;;;;;;5063658;28;19924;-77
2022/05/11 14:29:28;;;;;;;;;;;20.10;73.00;;;;;;5054360;28;19954;-75
2022/05/11 14:31:57;;;;;;;;;;;20.20;73.10;;;;;;5063127;28;19971;-76
2022/05/11 14:34:25;;;;;;;;;;;20.20;73.00;;;;;;5064793;28;19925;-77
2022/05/11 14:36:53;;;;;;;;;;;20.20;73.00;;;;;;5052120;28;19924;-76
2022/05/11 14:39:23;;;;;;;;;;;20.20;73.10;;;;;;5063363;28;20379;-76
2022/05/11 14:41:50;;;;;;;;;;;20.20;73.00;;;;;;5055184;28;19934;-80
2022/05/11 14:44:16;;;;;;;;;;;20.20;73.00;;;;;;5045838;28;19997;-77
2022/05/11 14:46:44;;;;;;;;;;;20.20;73.00;;;;;;5044386;28;19954;-76
2022/05/11 14:49:11;;;;;;;;;;;20.20;73.80;;;;;;5046722;28;19988;-76
2022/05/11 14:51:39;;;;;;;;;;;20.20;73.00;;;;;;5041803;28;19987;-76
2022/05/11 14:54:06;;;;;;;;;;;20.20;73.00;;;;;;5064516;28;19925;-77
2022/05/11 14:56:32;;;;;;;;;;;20.20;72.90;;;;;;5061734;28;19925;-77
2022/05/11 15:01:56;;;;;;;;;;;20.20;72.90;;;;;;5054933;28;19924;-77
2022/05/11 15:04:27;;;;;;;;;;;20.20;72.90;;;;;;5055780;28;19932;-77
2022/05/11 15:06:54;;;;;;;;;;;20.20;72.80;;;;;;5074927;28;19963;-74
2022/05/11 15:09:22;;;;;;;;;;;20.20;72.90;;;;;;5071633;28;19986;-75
2022/05/11 15:14:36;;;;;;;;;;;20.20;72.80;;;;;;5065375;28;19932;-75
2022/05/11 15:17:04;;;;;;;;;;;20.20;72.80;;;;;;5054576;28;19925;-76